Time;durP1;ratioP1;P1;durP2;ratioP2;P2;SDS_P1;SDS_P2;PMS_P1;PMS_P2;Temp;Humidity;BMP_temperature;BMP_pressure;BME280_temperature;BME280_humidity;BME280_pressure;Samples;Min_cycle;Max_cycle;Signal;HPM_P1;HPM_P2
2024/03/14 00:01:41;;;;;;;10.90;9.80;;;9.70;99.90;;;-141.84;100.00;119224.81;5041202;28;20255;-57
2024/03/14 00:04:09;;;;;;;11.90;10.60;;;9.70;99.90;;;-141.84;100.00;119224.81;5040814;28;20306;-58
2024/03/14 00:06:38;;;;;;;11.37;10.03;;;9.80;99.90;;;-141.84;100.00;119224.81;5040899;28;20216;-56
2024/03/14 00:09:08;;;;;;;12.77;9.77;;;9.80;99.90;;;-141.84;100.00;119224.81;5053113;28;20266;-58
2024/03/14 00:11:36;;;;;;;10.70;9.50;;;9.80;99.90;;;-141.84;100.00;119224.81;5041160;28;20685;-59
2024/03/14 00:14:05;;;;;;;12.10;9.13;;;9.80;99.90;;;-141.84;100.00;119224.81;5041644;28;20310;-59
2024/03/14 00:16:36;;;;;;;12.83;10.43;;;9.80;99.90;;;-141.84;100.00;119224.81;5037417;28;20255;-57
2024/03/14 00:19:05;;;;;;;11.13;9.60;;;9.80;99.90;;;-141.84;100.00;119224.81;5039126;28;20227;-58
2024/03/14 00:21:33;;;;;;;10.93;9.80;;;9.80;99.90;;;-141.84;100.00;119224.81;5032738;28;20220;-58
2024/03/14 00:24:01;;;;;;;12.17;10.30;;;9.70;99.90;;;-141.84;100.00;119224.81;5042449;28;20228;-57
2024/03/14 00:26:30;;;;;;;12.93;10.13;;;9.80;99.90;;;-141.84;100.00;119224.81;5040303;28;20292;-58
2024/03/14 00:28:58;;;;;;;11.30;9.97;;;9.80;99.90;;;-141.84;100.00;119224.81;5038094;28;20200;-58
2024/03/14 00:31:29;;;;;;;12.07;9.87;;;9.70;99.90;;;-141.84;100.00;119224.81;5038582;28;20266;-58
2024/03/14 00:33:57;;;;;;;10.73;9.63;;;9.70;99.90;;;-141.84;100.00;119224.81;5041467;28;20243;-58
2024/03/14 00:36:26;;;;;;;16.17;12.07;;;9.70;99.90;;;-141.84;100.00;119224.81;5037503;28;20239;-57
2024/03/14 00:38:54;;;;;;;12.30;11.00;;;9.70;99.90;;;-141.84;100.00;119224.81;5040415;28;20224;-56
2024/03/14 00:41:24;;;;;;;13.33;11.17;;;9.70;99.90;;;-141.84;100.00;119224.81;5041304;28;20667;-58
2024/03/14 00:43:53;;;;;;;14.30;11.53;;;9.70;99.90;;;-141.84;100.00;119224.81;5041341;28;20295;-57
2024/03/14 00:46:21;;;;;;;14.13;11.90;;;9.60;99.90;;;-141.84;100.00;119224.81;5038183;28;20228;-59
2024/03/14 00:48:52;;;;;;;13.03;11.30;;;9.70;99.90;;;-141.84;100.00;119224.81;5040185;28;20273;-58
2024/03/14 00:51:20;;;;;;;16.93;11.20;;;9.70;99.90;;;-141.84;100.00;119224.81;5037267;28;20228;-58
2024/03/14 00:53:51;;;;;;;13.10;11.53;;;9.70;99.90;;;-141.84;100.00;119224.81;5039331;28;20228;-58
2024/03/14 00:56:19;;;;;;;13.67;12.10;;;9.70;99.90;;;-141.84;100.00;119224.81;5041601;28;20287;-57
2024/03/14 00:58:48;;;;;;;13.20;11.80;;;9.70;99.90;;;-141.84;100.00;119224.81;5036647;28;20248;-58
2024/03/14 01:01:16;;;;;;;13.33;11.77;;;9.60;99.90;;;-141.84;100.00;119224.81;5056122;28;20255;-58
2024/03/14 01:03:45;;;;;;;12.63;11.20;;;9.60;99.90;;;-141.84;100.00;119224.81;5036142;28;20220;-56
2024/03/14 01:06:16;;;;;;;19.10;12.00;;;9.60;99.90;;;-141.84;100.00;119224.81;5039350;28;20310;-58
2024/03/14 01:08:44;;;;;;;16.00;12.07;;;9.60;99.90;;;-141.84;100.00;119224.81;5031957;28;20540;-59
2024/03/14 01:11:14;;;;;;;13.93;12.10;;;9.60;99.90;;;-141.84;100.00;119224.81;5029448;28;20743;-57
2024/03/14 01:13:42;;;;;;;13.73;11.90;;;9.60;99.90;;;-141.84;100.00;119224.81;5032977;28;20229;-58
2024/03/14 01:16:10;;;;;;;13.17;11.47;;;9.60;99.90;;;-141.84;100.00;119224.81;5036171;28;20228;-59
2024/03/14 01:18:40;;;;;;;15.27;12.90;;;9.60;99.90;;;-141.84;100.00;119224.81;5032436;28;20283;-58
2024/03/14 01:21:09;;;;;;;13.90;12.27;;;9.60;99.90;;;-141.84;100.00;119224.81;5040012;28;20319;-58
2024/03/14 01:23:38;;;;;;;14.47;11.83;;;9.60;99.90;;;-141.84;100.00;119224.81;5044330;28;20196;-58
2024/03/14 01:26:06;;;;;;;14.00;12.50;;;9.70;99.90;;;-141.84;100.00;119224.81;5036540;28;20228;-55
2024/03/14 01:28:35;;;;;;;14.97;13.13;;;9.70;99.90;;;-141.84;100.00;119224.81;5030825;28;20292;-57
2024/03/14 01:31:05;;;;;;;14.53;12.87;;;9.60;99.90;;;-141.84;100.00;119224.81;5029675;28;20251;-59
2024/03/14 01:33:33;;;;;;;15.10;12.83;;;9.70;99.90;;;-141.84;100.00;119224.81;5036898;28;20235;-57
2024/03/14 01:36:02;;;;;;;14.83;12.63;;;9.60;99.90;;;-141.84;100.00;119224.81;5039859;28;20243;-58
2024/03/14 01:38:34;;;;;;;15.50;13.37;;;9.60;99.90;;;-141.84;100.00;119224.81;5003887;28;20224;-58
2024/03/14 01:41:03;;;;;;;14.30;12.10;;;9.80;99.90;;;-141.84;100.00;119224.81;5036918;28;20216;-59
2024/03/14 01:43:34;;;;;;;17.40;12.57;;;9.60;99.90;;;-141.84;100.00;119224.81;5031080;28;20290;-59
2024/03/14 01:46:02;;;;;;;15.13;12.83;;;9.60;99.90;;;-141.84;100.00;119224.81;5035755;28;20372;-58
2024/03/14 01:48:31;;;;;;;14.73;13.00;;;9.60;99.90;;;-141.84;100.00;119224.81;5038809;28;20227;-57
2024/03/14 01:51:00;;;;;;;14.83;12.53;;;9.60;99.90;;;-141.84;100.00;119224.81;5039653;28;20236;-58
2024/03/14 01:53:29;;;;;;;15.40;13.30;;;9.60;99.90;;;-141.84;100.00;119224.81;5039798;28;20199;-58
2024/03/14 01:55:58;;;;;;;15.00;13.40;;;9.60;99.90;;;-141.84;100.00;119224.81;5032226;28;20560;-56
2024/03/14 01:58:26;;;;;;;14.90;12.70;;;9.60;99.90;;;-141.84;100.00;119224.81;5039743;28;20967;-56
2024/03/14 02:00:55;;;;;;;14.80;13.30;;;9.60;99.90;;;-141.84;100.00;119224.81;5036227;28;20220;-57
2024/03/14 02:03:23;;;;;;;16.13;13.60;;;9.60;99.90;;;-141.84;100.00;119224.81;5039658;28;20227;-57
2024/03/14 02:05:52;;;;;;;15.43;13.27;;;9.60;99.90;;;-141.84;100.00;119224.81;5035785;28;20307;-57
2024/03/14 02:08:21;;;;;;;14.90;13.30;;;9.70;99.90;;;-141.84;100.00;119224.81;5033059;28;20204;-56
2024/03/14 02:10:50;;;;;;;16.97;15.17;;;9.60;99.90;;;-141.84;100.00;119224.81;5039434;28;20232;-57
2024/03/14 02:13:18;;;;;;;16.40;14.67;;;9.70;99.90;;;-141.84;100.00;119224.81;5038433;28;20267;-57
2024/03/14 02:15:46;;;;;;;13.67;12.20;;;9.60;99.90;;;-141.84;100.00;119224.81;5055428;28;20250;-58
2024/03/14 02:18:16;;;;;;;16.73;13.87;;;9.60;99.90;;;-141.84;100.00;119224.81;5043348;28;20231;-57
2024/03/14 02:20:45;;;;;;;15.70;13.87;;;9.60;99.90;;;-141.84;100.00;119224.81;5059614;28;20250;-58
2024/03/14 02:23:13;;;;;;;16.33;13.90;;;9.60;99.90;;;-141.84;100.00;119224.81;5045448;28;20200;-56
2024/03/14 02:25:42;;;;;;;15.73;13.80;;;9.60;99.90;;;-141.84;100.00;119224.81;5039459;28;20244;-59
2024/03/14 02:28:13;;;;;;;16.43;13.70;;;9.70;99.90;;;-141.84;100.00;119224.81;5043015;28;20699;-58
2024/03/14 02:30:41;;;;;;;15.53;13.93;;;9.60;99.90;;;-141.84;100.00;119224.81;5031130;28;20216;-57
2024/03/14 02:33:11;;;;;;;16.57;13.97;;;9.60;99.90;;;-141.84;100.00;119224.81;5047584;28;20267;-58
2024/03/14 02:35:40;;;;;;;16.87;15.03;;;9.60;99.90;;;-141.84;100.00;119224.81;5037380;28;20656;-58
2024/03/14 02:38:08;;;;;;;18.90;15.17;;;9.60;99.90;;;-141.84;100.00;119224.81;5039704;28;20254;-58
2024/03/14 02:40:37;;;;;;;16.57;13.73;;;9.60;99.90;;;-141.84;100.00;119224.81;5042856;28;20292;-58
2024/03/14 02:43:06;;;;;;;15.60;13.97;;;9.60;99.90;;;-141.84;100.00;119224.81;5042606;28;20318;-59
2024/03/14 02:45:36;;;;;;;17.53;15.37;;;9.60;99.90;;;-141.84;100.00;119224.81;5042657;28;20224;-58
2024/03/14 02:48:06;;;;;;;18.87;16.73;;;9.60;99.90;;;-141.84;100.00;119224.81;5043236;28;20238;-58
2024/03/14 02:50:34;;;;;;;19.73;16.90;;;9.60;99.90;;;-141.84;100.00;119224.81;5040556;28;20288;-58
2024/03/14 02:53:04;;;;;;;19.30;17.20;;;9.60;99.90;;;-141.84;100.00;119224.81;5040496;28;20193;-58
2024/03/14 02:55:33;;;;;;;19.03;16.63;;;9.60;99.90;;;-141.84;100.00;119224.81;5042020;28;20723;-57
2024/03/14 02:58:04;;;;;;;19.77;16.43;;;9.60;99.90;;;-141.84;100.00;119224.81;5033170;28;20224;-57
2024/03/14 03:00:32;;;;;;;19.43;16.13;;;9.60;99.90;;;-141.84;100.00;119224.81;5042394;28;20770;-57
2024/03/14 03:03:01;;;;;;;19.63;15.83;;;9.60;99.90;;;-141.84;100.00;119224.81;5041228;28;20703;-56
2024/03/14 03:05:29;;;;;;;20.97;16.50;;;9.60;99.90;;;-141.84;100.00;119224.81;5041833;28;20302;-58
2024/03/14 03:07:59;;;;;;;22.83;18.47;;;9.60;99.90;;;-141.84;100.00;119224.81;5039926;28;20552;-57
2024/03/14 03:10:27;;;;;;;24.47;17.73;;;9.60;99.90;;;-141.84;100.00;119224.81;5041890;28;20263;-57
2024/03/14 03:12:56;;;;;;;21.87;17.17;;;9.60;99.90;;;-141.84;100.00;119224.81;5041987;28;20219;-58
2024/03/14 03:15:24;;;;;;;22.20;16.73;;;9.60;99.90;;;-141.84;100.00;119224.81;5042230;28;20399;-58
2024/03/14 03:17:52;;;;;;;23.67;17.43;;;9.60;99.90;;;-141.84;100.00;119224.81;5042062;28;20903;-57
2024/03/14 03:20:22;;;;;;;25.23;17.37;;;9.60;99.90;;;-141.84;100.00;119224.81;5039234;28;20200;-58
2024/03/14 03:23:08;;;;;;;22.40;17.27;;;9.60;99.90;;;-141.84;100.00;119224.81;5046282;28;20276;-56
2024/03/14 03:25:35;;;;;;;22.90;17.83;;;9.60;99.90;;;-141.84;100.00;119224.81;5042001;28;20246;-57
2024/03/14 03:28:10;;;;;;;25.43;18.50;;;9.60;99.90;;;-141.84;100.00;119224.81;5040853;28;20227;-56
2024/03/14 03:30:37;;;;;;;24.00;17.73;;;9.60;99.90;;;-141.84;100.00;119224.81;5058854;28;20310;-58
2024/03/14 03:33:07;;;;;;;25.33;19.43;;;9.60;99.90;;;-141.84;100.00;119224.81;5037497;28;20286;-57
2024/03/14 03:35:35;;;;;;;23.33;18.57;;;9.60;99.90;;;-141.84;100.00;119224.81;5039348;28;20200;-57
2024/03/14 03:38:06;;;;;;;25.47;18.70;;;9.60;99.90;;;-141.84;100.00;119224.81;5042761;28;20222;-57
2024/03/14 03:40:36;;;;;;;24.50;18.10;;;9.60;99.90;;;-141.84;100.00;119224.81;5042993;28;20247;-57
2024/03/14 03:43:04;;;;;;;25.57;18.97;;;9.60;99.90;;;-141.84;100.00;119224.81;5042383;28;20228;-57
2024/03/14 03:45:32;;;;;;;23.60;17.33;;;9.60;99.90;;;-141.84;100.00;119224.81;5038073;28;20276;-56
2024/03/14 03:48:02;;;;;;;23.63;17.47;;;9.70;99.90;;;-141.84;100.00;119224.81;5037158;28;20224;-57
2024/03/14 03:50:33;;;;;;;28.17;18.80;;;9.60;99.90;;;-141.84;100.00;119224.81;5057435;28;20193;-58
2024/03/14 03:53:03;;;;;;;24.47;17.53;;;9.60;99.90;;;-141.84;100.00;119224.81;5047678;28;20627;-59
2024/03/14 03:55:32;;;;;;;24.23;17.77;;;9.60;99.90;;;-141.84;100.00;119224.81;5044019;28;20223;-57
2024/03/14 03:58:00;;;;;;;28.43;19.23;;;9.70;99.90;;;-141.84;100.00;119224.81;5042048;28;20244;-58
2024/03/14 04:00:41;;;;;;;25.40;17.97;;;9.70;99.90;;;-141.84;100.00;119224.81;5041662;28;20247;-56
2024/03/14 04:03:11;;;;;;;26.87;18.87;;;9.70;99.90;;;-141.84;100.00;119224.81;5045224;28;20921;-58
2024/03/14 04:05:39;;;;;;;26.43;18.40;;;9.60;99.90;;;-141.84;100.00;119224.81;5043017;28;20237;-57
2024/03/14 04:08:07;;;;;;;26.67;18.77;;;9.60;99.90;;;-141.84;100.00;119224.81;5040795;28;20203;-58
2024/03/14 04:10:35;;;;;;;24.70;18.53;;;9.60;99.90;;;-141.84;100.00;119224.81;5041389;28;20228;-57
2024/03/14 04:13:04;;;;;;;26.23;18.97;;;9.60;99.90;;;-141.84;100.00;119224.81;5037777;28;20224;-58
2024/03/14 04:15:33;;;;;;;23.47;17.37;;;9.60;99.90;;;-141.84;100.00;119224.81;5042127;28;20310;-56
2024/03/14 04:18:05;;;;;;;25.57;18.77;;;9.60;99.90;;;-141.84;100.00;119224.81;5041358;28;20216;-56
2024/03/14 04:20:37;;;;;;;26.77;19.93;;;9.60;99.90;;;-141.84;100.00;119224.81;5043021;28;20184;-58
2024/03/14 04:23:06;;;;;;;28.57;20.20;;;9.60;99.90;;;-141.84;100.00;119224.81;5046515;28;20313;-58
2024/03/14 04:25:35;;;;;;;25.17;18.97;;;9.60;99.90;;;-141.84;100.00;119224.81;5037454;28;20216;-57
2024/03/14 04:28:07;;;;;;;24.10;18.50;;;9.60;99.90;;;-141.84;100.00;119224.81;5038504;28;20281;-58
2024/03/14 04:30:36;;;;;;;25.70;18.43;;;9.60;99.90;;;-141.84;100.00;119224.81;5035255;28;20303;-56
2024/03/14 04:33:05;;;;;;;27.63;20.70;;;9.60;99.90;;;-141.84;100.00;119224.81;5037819;28;20237;-59
2024/03/14 04:35:35;;;;;;;26.20;19.87;;;9.60;99.90;;;-141.84;100.00;119224.81;5041097;28;20581;-59
2024/03/14 04:38:03;;;;;;;27.03;19.77;;;9.60;99.90;;;-141.84;100.00;119224.81;5041987;28;20211;-58
2024/03/14 04:40:32;;;;;;;23.33;17.97;;;9.60;99.90;;;-141.84;100.00;119224.81;5039811;28;20220;-59
2024/03/14 04:43:04;;;;;;;23.67;17.13;;;9.60;99.90;;;-141.84;100.00;119224.81;5040393;28;20216;-57
2024/03/14 04:45:32;;;;;;;23.80;17.20;;;9.60;99.90;;;-141.84;100.00;119224.81;5037712;28;20241;-57
2024/03/14 04:48:04;;;;;;;22.73;17.30;;;9.60;99.90;;;-141.84;100.00;119224.81;5037721;28;20224;-57
2024/03/14 04:50:34;;;;;;;22.77;16.83;;;9.60;99.90;;;-141.84;100.00;119224.81;5042693;28;20226;-61
2024/03/14 04:53:03;;;;;;;22.33;17.50;;;9.60;99.90;;;-141.84;100.00;119224.81;5038326;28;20625;-60
2024/03/14 04:55:32;;;;;;;23.67;17.30;;;9.60;99.90;;;-141.84;100.00;119224.81;5039874;28;20247;-58
2024/03/14 04:58:00;;;;;;;24.03;17.30;;;9.60;99.90;;;-141.84;100.00;119224.81;5040460;28;20220;-59
2024/03/14 05:00:31;;;;;;;24.93;18.37;;;9.70;99.90;;;-141.84;100.00;119224.81;5036294;28;20734;-59
2024/03/14 05:03:00;;;;;;;23.87;17.03;;;9.70;99.90;;;-141.84;100.00;119224.81;5040394;28;20319;-58
2024/03/14 05:05:28;;;;;;;23.00;17.23;;;9.70;99.90;;;-141.84;100.00;119224.81;5036575;28;20197;-58
2024/03/14 05:07:56;;;;;;;22.63;16.47;;;9.70;99.90;;;-141.84;100.00;119224.81;5040490;28;20555;-60
2024/03/14 05:10:25;;;;;;;21.53;16.13;;;9.70;99.90;;;-141.84;100.00;119224.81;5038316;28;20236;-60
2024/03/14 05:12:53;;;;;;;20.07;15.83;;;9.70;99.90;;;-141.84;100.00;119224.81;5036836;28;20294;-57
2024/03/14 05:15:21;;;;;;;21.23;16.33;;;9.70;99.90;;;-141.84;100.00;119224.81;5036412;28;20248;-58
2024/03/14 05:17:51;;;;;;;20.83;14.97;;;9.70;99.90;;;-141.84;100.00;119224.81;5038951;28;20699;-60
2024/03/14 05:20:23;;;;;;;20.63;15.33;;;9.70;99.90;;;-141.84;100.00;119224.81;5037000;28;20291;-59
2024/03/14 05:22:52;;;;;;;19.47;15.33;;;9.70;99.90;;;-141.84;100.00;119224.81;5043164;28;20268;-57
2024/03/14 05:25:21;;;;;;;20.10;15.23;;;9.70;99.90;;;-141.84;100.00;119224.81;5036261;28;20228;-58
2024/03/14 05:27:50;;;;;;;19.97;16.00;;;9.70;99.90;;;-141.84;100.00;119224.81;5032555;28;20227;-59
2024/03/14 05:30:19;;;;;;;18.70;15.27;;;9.70;99.90;;;-141.84;100.00;119224.81;5038983;28;20224;-57
2024/03/14 05:32:48;;;;;;;20.17;14.43;;;9.70;99.90;;;-141.84;100.00;119224.81;5036428;28;20246;-58
2024/03/14 05:35:18;;;;;;;18.67;13.80;;;9.80;99.90;;;-141.84;100.00;119224.81;5036695;28;20213;-59
2024/03/14 05:37:46;;;;;;;19.73;15.03;;;9.80;99.90;;;-141.84;100.00;119224.81;5038604;28;20217;-57
2024/03/14 05:40:14;;;;;;;17.43;13.90;;;9.70;99.90;;;-141.84;100.00;119224.81;5036403;28;20682;-59
2024/03/14 05:42:43;;;;;;;19.37;14.23;;;9.80;99.90;;;-141.84;100.00;119224.81;5055680;28;20220;-59
2024/03/14 05:45:11;;;;;;;18.53;14.40;;;9.80;99.90;;;-141.84;100.00;119224.81;5039741;28;20228;-59
2024/03/14 05:47:40;;;;;;;20.20;15.60;;;9.80;99.90;;;-141.84;100.00;119224.81;5036141;28;20212;-59
2024/03/14 05:50:09;;;;;;;19.93;14.80;;;9.80;99.90;;;-141.84;100.00;119224.81;5031975;28;20207;-58
2024/03/14 05:52:39;;;;;;;18.80;14.77;;;9.90;99.90;;;-141.84;100.00;119224.81;5045193;28;20216;-58
2024/03/14 05:55:10;;;;;;;18.43;13.93;;;9.90;99.90;;;-141.84;100.00;119224.81;5048140;28;20648;-58
2024/03/14 05:57:39;;;;;;;18.07;14.23;;;9.90;99.90;;;-141.84;100.00;119224.81;5043347;28;20707;-59
2024/03/14 06:00:11;;;;;;;16.43;13.60;;;9.90;99.90;;;-141.84;100.00;119224.81;5043842;28;20247;-59
2024/03/14 06:02:40;;;;;;;18.63;13.80;;;9.80;99.90;;;-141.84;100.00;119224.81;5060625;28;20207;-58
2024/03/14 06:05:09;;;;;;;18.10;13.87;;;10.00;99.90;;;-141.84;100.00;119224.81;5060194;28;20196;-58
2024/03/14 06:07:38;;;;;;;15.20;13.00;;;9.90;99.90;;;-141.84;100.00;119224.81;5041129;28;20303;-58
2024/03/14 06:10:07;;;;;;;17.33;12.70;;;9.90;99.90;;;-141.84;100.00;119224.81;5043041;28;20281;-58
2024/03/14 06:12:37;;;;;;;14.93;12.00;;;10.00;99.90;;;-141.84;100.00;119224.81;5051826;28;20212;-58
2024/03/14 06:15:07;;;;;;;14.47;12.43;;;10.00;99.90;;;-141.84;100.00;119224.81;5040296;28;20282;-58
2024/03/14 06:17:36;;;;;;;16.13;12.10;;;10.00;99.90;;;-141.84;100.00;119224.81;5041442;28;20192;-56
2024/03/14 06:20:07;;;;;;;16.17;12.73;;;10.00;99.90;;;-141.84;100.00;119224.81;5040052;28;20203;-59
2024/03/14 06:22:36;;;;;;;16.53;12.93;;;10.00;99.90;;;-141.84;100.00;119224.81;5042523;28;20221;-58
2024/03/14 06:25:07;;;;;;;15.73;13.00;;;10.10;99.90;;;-141.84;100.00;119224.81;5043037;28;20299;-57
2024/03/14 06:27:35;;;;;;;15.40;12.80;;;10.10;99.90;;;-141.84;100.00;119224.81;5040001;28;20232;-58
2024/03/14 06:30:09;;;;;;;19.17;14.17;;;10.10;99.90;;;-141.84;100.00;119224.81;5036878;28;20264;-57
2024/03/14 06:32:41;;;;;;;17.67;13.17;;;10.10;99.90;;;-141.84;100.00;119224.81;5054379;28;20241;-57
2024/03/14 06:35:11;;;;;;;14.90;13.00;;;10.20;99.90;;;-141.84;100.00;119224.81;5043282;28;20318;-57
2024/03/14 06:37:40;;;;;;;16.47;12.67;;;10.30;99.90;;;-141.84;100.00;119224.81;5042671;28;20228;-58
2024/03/14 06:40:10;;;;;;;16.53;13.27;;;10.30;99.90;;;-141.84;100.00;119224.81;5032063;28;20696;-57
2024/03/14 06:42:38;;;;;;;14.47;12.93;;;10.40;99.90;;;-141.84;100.00;119224.81;5038352;28;20225;-57
2024/03/14 06:45:07;;;;;;;17.83;13.27;;;10.50;99.90;;;-141.84;100.00;119224.81;5041907;28;20281;-58
2024/03/14 06:47:36;;;;;;;16.30;13.67;;;10.70;99.90;;;-141.84;100.00;119222.75;5038793;28;20280;-58
2024/03/14 06:50:05;;;;;;;15.67;12.80;;;10.80;99.90;;;-141.84;100.00;116823.13;5042951;28;20243;-57
2024/03/14 06:52:34;;;;;;;13.67;11.50;;;11.00;99.90;;;-141.84;100.00;113359.50;5063548;28;20961;-56
2024/03/14 06:55:04;;;;;;;14.45;12.20;;;11.10;99.90;;;-141.84;100.00;106175.19;5047948;28;20232;-58
2024/03/14 06:57:34;;;;;;;14.30;11.83;;;11.20;99.90;;;-141.84;99.23;102455.00;5040154;28;20229;-58
2024/03/14 07:00:11;;;;;;;12.25;10.60;;;11.40;99.90;;;-141.84;99.77;103783.25;5043850;28;20307;-59
2024/03/14 07:02:41;;;;;;;13.20;10.93;;;11.60;99.90;;;-141.84;98.46;101923.81;5044909;28;20192;-58
2024/03/14 07:05:11;;;;;;;14.73;11.48;;;11.70;99.90;;;-141.84;93.88;90255.47;5058940;28;20775;-58
2024/03/14 07:07:44;;;;;;;15.55;10.65;;;11.70;99.90;;;-141.84;90.32;77036.81;5039732;28;20684;-57
2024/03/14 07:10:14;;;;;;;12.48;10.85;;;11.80;99.90;;;-141.84;88.42;69126.50;5028007;28;20630;-58
2024/03/14 07:12:45;;;;;;;12.68;10.10;;;11.80;99.90;;;-141.84;90.30;75981.22;5043119;28;20222;-58
2024/03/14 07:15:15;;;;;;;11.88;10.68;;;11.70;99.90;;;-141.84;91.24;79941.19;5038698;28;20227;-58
2024/03/14 07:17:43;;;;;;;13.23;10.70;;;11.70;99.90;;;-141.84;91.14;78884.81;5043253;28;20265;-59
2024/03/14 07:20:18;;;;;;;12.77;10.70;;;11.70;99.90;;;-141.84;93.28;86814.44;5040693;28;20196;-59
2024/03/14 07:22:46;;;;;;;11.60;10.15;;;11.70;99.90;;;-141.84;93.21;85756.25;5045611;28;20280;-59
2024/03/14 07:25:17;;;;;;;12.63;10.50;;;11.60;99.90;;;-141.84;96.54;95024.81;5040761;28;20300;-58
2024/03/14 07:27:46;;;;;;;12.63;10.75;;;11.50;99.90;;;-141.84;99.98;103517.56;5038651;28;20256;-60
2024/03/14 07:30:15;;;;;;;13.50;11.20;;;11.40;99.90;;;-141.84;97.13;97676.88;5040772;28;20268;-59
2024/03/14 07:32:43;;;;;;;13.20;11.20;;;11.30;99.90;;;-141.84;99.05;101658.25;5038268;28;20200;-59
2024/03/14 07:35:12;;;;;;;13.73;11.18;;;11.30;99.90;;;-141.84;100.00;105377.72;5054710;28;20193;-59
2024/03/14 07:37:45;;;;;;;15.27;12.17;;;11.20;99.90;;;-141.84;100.00;106441.06;5042714;28;20232;-59
2024/03/14 07:40:16;;;;;;;13.47;11.27;;;11.10;99.90;;;-141.84;96.76;98472.84;5039508;28;20219;-57
2024/03/14 07:42:46;;;;;;;13.23;11.20;;;11.20;99.90;;;-141.84;95.24;93169.38;5040560;28;20699;-58
2024/03/14 07:45:17;;;;;;;12.07;10.80;;;11.20;99.90;;;-141.84;99.85;102720.59;5037576;28;20285;-59
2024/03/14 07:47:48;;;;;;;12.50;10.70;;;11.20;99.90;;;-141.84;100.00;110431.03;5040664;28;20807;-58
2024/03/14 07:50:17;;;;;;;14.53;12.03;;;11.20;99.90;;;-141.84;100.00;111495.69;5042845;28;20200;-59
2024/03/14 07:52:46;;;;;;;14.13;11.33;;;11.30;99.90;;;-141.84;100.00;110963.31;5043648;28;20239;-58
2024/03/14 07:55:16;;;;;;;14.50;11.23;;;11.30;99.90;;;-141.84;100.00;105377.72;5043580;28;20808;-58
2024/03/14 07:57:46;;;;;;;14.07;10.52;;;11.40;99.90;;;-141.84;100.00;108036.56;5053763;28;20239;-57
2024/03/14 08:00:16;;;;;;;13.23;11.20;;;11.60;99.90;;;-141.84;97.19;99799.78;5035425;28;20712;-59
2024/03/14 08:02:54;;;;;;;12.65;10.85;;;11.60;99.90;;;-141.84;96.51;97411.59;5040061;28;20203;-57
2024/03/14 08:05:31;;;;;;;12.47;10.70;;;11.80;99.90;;;-141.84;90.07;78884.81;5045623;28;20249;-58
2024/03/14 08:08:01;;;;;;;11.90;10.27;;;11.90;99.90;;;-141.84;92.85;85227.25;5038360;28;20208;-57
2024/03/14 08:10:46;;;;;;;13.60;11.38;;;11.90;99.90;;;-141.84;92.67;87872.91;5047221;28;20228;-58
2024/03/14 08:13:20;;;;;;;11.85;10.65;;;12.00;99.90;;;-141.84;93.37;88666.94;5040778;28;20875;-59
2024/03/14 08:15:53;;;;;;;11.38;10.13;;;12.00;99.90;;;-141.84;95.34;95289.94;5038683;28;20587;-58
2024/03/14 08:18:23;;;;;;;11.35;10.18;;;12.10;99.90;;;-141.84;91.02;82054.78;5038241;28;20251;-58
2024/03/14 08:20:55;;;;;;;11.40;9.80;;;12.30;99.90;;;-141.84;90.21;80205.34;5024845;28;20621;-59
2024/03/14 08:23:25;;;;;;;10.60;9.00;;;12.50;99.90;;;-141.84;86.64;63335.53;5039856;28;20698;-59
2024/03/14 08:25:54;;;;;;;10.45;9.20;;;12.60;99.90;;;-141.84;86.18;61494.72;5037476;28;20295;-57
2024/03/14 08:28:22;;;;;;;10.20;9.20;;;12.60;99.90;;;-141.84;86.16;61231.81;5040388;28;20243;-56
2024/03/14 08:30:51;;;;;;;10.95;9.25;;;12.60;99.90;;;-141.84;86.47;61757.66;5040623;28;20223;-58
2024/03/14 08:33:22;;;;;;;10.80;9.70;;;12.50;99.90;;;-141.84;86.40;61231.81;5040159;28;20227;-58
2024/03/14 08:35:52;;;;;;;10.70;9.25;;;12.50;99.90;;;-141.84;86.43;62546.50;5038194;28;20231;-58
2024/03/14 08:38:21;;;;;;;12.95;9.80;;;12.40;99.90;;;-141.84;85.10;55452.34;5039163;28;20358;-58
2024/03/14 08:40:50;;;;;;;10.57;9.50;;;12.30;99.90;;;-141.84;86.75;62546.50;5032109;28;20228;-59
2024/03/14 08:43:19;;;;;;;11.13;9.52;;;12.30;99.90;;;-141.84;88.48;71497.94;5036558;28;20243;-58
2024/03/14 08:45:50;;;;;;;11.63;9.35;;;12.20;99.90;;;-141.84;90.74;79677.06;5037022;28;20285;-58
2024/03/14 08:48:21;;;;;;;11.40;9.90;;;12.10;99.90;;;-141.84;88.62;72288.75;5041232;28;20220;-60
2024/03/14 08:50:50;;;;;;;10.50;9.40;;;12.10;99.90;;;-141.84;90.29;78884.81;5041257;28;20315;-58
2024/03/14 08:53:18;;;;;;;13.43;10.77;;;12.20;99.90;;;-141.84;89.79;79412.97;5046200;28;20199;-59
2024/03/14 08:55:54;;;;;;;10.80;9.23;;;12.20;99.90;;;-141.84;89.73;77564.72;5039923;28;20212;-57
2024/03/14 08:58:25;;;;;;;10.10;8.77;;;12.30;99.90;;;-141.84;90.75;80997.84;5042914;28;20706;-58
2024/03/14 09:00:53;;;;;;;13.13;9.73;;;12.20;99.90;;;-141.84;90.66;80733.66;5049756;28;20311;-58
2024/03/14 09:03:22;;;;;;;11.07;9.52;;;12.30;99.90;;;-141.84;89.27;75717.34;5039918;28;20227;-58
2024/03/14 09:05:51;;;;;;;11.93;9.90;;;12.40;99.90;;;-141.84;86.24;65177.19;5037674;28;20228;-57
2024/03/14 09:08:24;;;;;;;10.63;8.95;;;12.40;99.90;;;-141.84;86.19;62020.59;5035209;28;20239;-58
2024/03/14 09:10:53;;;;;;;12.13;9.45;;;12.50;99.90;;;-141.84;82.57;39969.84;5039115;28;20228;-58
2024/03/14 09:13:23;;;;;;;10.95;9.75;;;12.60;99.90;;;-141.84;84.03;49157.03;5019932;28;20255;-57
2024/03/14 09:15:52;;;;;;;10.60;9.02;;;12.60;99.90;;;-141.84;83.66;45489.41;5020562;28;20255;-56
2024/03/14 09:18:24;;;;;;;11.73;10.18;;;12.70;99.90;;;-141.84;84.57;52303.44;5020024;28;20224;-57
2024/03/14 09:20:55;;;;;;;11.20;8.70;;;12.70;99.90;;;-141.84;85.38;57815.66;5026648;28;20322;-59
2024/03/14 09:23:25;;;;;;;11.18;9.55;;;12.80;99.90;;;-141.84;85.09;57027.72;5021950;28;20634;-60
2024/03/14 09:25:57;;;;;;;10.48;9.38;;;12.90;99.90;;;-141.84;85.20;57290.34;5019827;28;20217;-60
2024/03/14 09:28:26;;;;;;;10.48;8.90;;;13.10;99.90;;;-141.84;82.15;36772.03;5020606;28;20299;-58
2024/03/14 09:30:58;;;;;;;9.63;8.63;;;13.10;99.90;;;-141.84;81.10;29316.53;5016795;28;20252;-58
2024/03/14 09:33:28;;;;;;;9.88;8.90;;;13.10;99.90;;;-141.84;79.68;25012.00;5021045;28;20219;-57
2024/03/14 09:35:56;;;;;;;10.65;8.43;;;13.10;99.90;;;-141.84;78.92;21462.44;5019796;28;20683;-57
2024/03/14 09:38:27;;;;;;;11.77;8.68;;;13.10;99.90;;;-141.84;81.36;29070.00;5017854;28;20959;-58
2024/03/14 09:40:56;;;;;;;9.15;8.02;;;13.00;99.90;;;-141.84;82.23;35141.44;5027848;28;20307;-58
2024/03/14 09:43:37;;;;;;;8.80;7.80;;;13.00;99.90;;;-141.84;80.92;27856.03;5024808;28;20226;-57
2024/03/14 09:46:06;;;;;;;7.80;7.00;;;12.90;99.90;;;-141.84;82.63;37337.47;5028219;28;20224;-58
2024/03/14 09:48:35;;;;;;;8.10;7.25;;;12.90;99.90;;;-141.84;84.51;51254.38;5019881;28;20240;-59
2024/03/14 09:51:04;;;;;;;7.70;6.63;;;12.90;99.90;;;-141.84;84.89;55452.34;5020712;28;20228;-59
2024/03/14 09:53:33;;;;;;;8.02;6.57;;;13.00;99.90;;;-141.84;82.99;43918.63;5021158;28;20289;-58
2024/03/14 09:56:01;;;;;;;8.15;6.95;;;13.10;99.90;;;-141.84;78.85;21928.06;5016331;28;20629;-58
2024/03/14 09:58:29;;;;;;;8.32;7.47;;;13.20;99.90;;;-141.84;78.82;21797.94;5021013;28;20236;-58
2024/03/14 10:00:58;;;;;;;7.97;6.95;;;13.20;99.90;;;-141.84;80.31;25364.09;5022648;28;20249;-58